createdAt,value
2018-08-19T00:03:32.170Z,6.99
2018-08-19T00:09:27.178Z,7.03
2018-08-19T00:15:22.269Z,6.73
2018-08-19T00:21:17.173Z,6.67
2018-08-19T00:27:12.216Z,7.06
2018-08-19T00:33:07.194Z,7.11
2018-08-19T00:39:02.229Z,6.36
2018-08-19T00:44:57.228Z,7.05
2018-08-19T00:50:52.219Z,6.96
2018-08-19T00:56:47.278Z,7.01
2018-08-19T01:02:42.222Z,7.09
2018-08-19T01:08:37.220Z,7.29
2018-08-19T01:14:32.251Z,7.3
2018-08-19T01:20:27.232Z,7.54
2018-08-19T01:26:22.251Z,7.44
2018-08-19T01:32:17.296Z,7.82
2018-08-19T01:38:12.302Z,8.19
2018-08-19T01:44:07.332Z,7.39
2018-08-19T01:50:02.350Z,7.33
2018-08-19T01:55:57.282Z,7.89
2018-08-19T02:01:52.284Z,8.15
2018-08-19T02:07:47.302Z,8
2018-08-19T02:13:42.296Z,7.74
2018-08-19T02:19:37.313Z,8.24
2018-08-19T02:25:32.338Z,7.93
2018-08-19T02:31:27.359Z,7.73
2018-08-19T02:37:22.305Z,8.72
2018-08-19T02:43:17.275Z,8.83
2018-08-19T02:49:12.320Z,9.18
2018-08-19T02:55:07.337Z,8.73
2018-08-19T03:01:02.323Z,7.92
2018-08-19T03:06:57.350Z,8.58
2018-08-19T03:12:52.330Z,8.4
2018-08-19T03:18:47.395Z,8.62
2018-08-19T03:24:42.343Z,8.12
2018-08-19T03:30:37.368Z,8.17
2018-08-19T03:36:32.367Z,8.06
2018-08-19T03:42:27.418Z,8.87
2018-08-19T03:48:22.363Z,8.58
2018-08-19T03:54:17.388Z,8.24
2018-08-19T04:00:12.386Z,8.44
2018-08-19T04:06:07.382Z,8.78
2018-08-19T04:12:02.413Z,8.77
2018-08-19T04:17:57.441Z,8.63
2018-08-19T04:23:52.396Z,8.97
2018-08-19T04:29:47.407Z,8.6
2018-08-19T04:35:42.390Z,8.69
2018-08-19T04:41:37.472Z,8.68
2018-08-19T04:47:32.441Z,8.66
2018-08-19T04:53:27.419Z,9
2018-08-19T04:59:22.444Z,8.6
2018-08-19T05:05:17.440Z,9.39
2018-08-19T05:11:12.409Z,8.87
2018-08-19T05:17:07.441Z,9.21
2018-08-19T05:23:02.440Z,8.48
2018-08-19T05:28:57.414Z,8.77
2018-08-19T05:34:52.458Z,9.69
2018-08-19T05:40:47.507Z,8.2
2018-08-19T05:46:42.513Z,8.63
2018-08-19T05:52:37.564Z,9.06
2018-08-19T05:58:32.442Z,9.28
2018-08-19T06:04:27.464Z,10.45
2018-08-19T06:10:22.514Z,10.66
2018-08-19T06:16:17.482Z,10.64
2018-08-19T06:22:12.570Z,10.43
2018-08-19T06:28:07.456Z,10.2
2018-08-19T06:34:02.497Z,11.81
2018-08-19T06:39:57.560Z,11.62
2018-08-19T06:45:52.533Z,10.86
2018-08-19T06:51:47.610Z,10.33
2018-08-19T06:57:42.593Z,10.47
2018-08-19T07:03:37.618Z,9.71
2018-08-19T07:09:32.510Z,10.33
2018-08-19T07:15:27.596Z,9.38
2018-08-19T07:21:22.586Z,9.98
2018-08-19T07:27:17.522Z,10.13
2018-08-19T07:33:12.540Z,9.86
2018-08-19T07:39:07.577Z,10.33
2018-08-19T07:45:02.612Z,9.7
2018-08-19T07:50:57.574Z,10.06
2018-08-19T07:56:52.528Z,9.56
2018-08-19T08:02:47.560Z,10.66
2018-08-19T08:08:42.551Z,10.03
2018-08-19T08:14:37.595Z,9.5
2018-08-19T08:20:32.618Z,10.14
2018-08-19T08:26:27.574Z,10.03
2018-08-19T08:32:22.603Z,9.78
2018-08-19T08:38:17.717Z,10.33
2018-08-19T08:44:12.605Z,10.24
2018-08-19T08:50:07.670Z,10.93
2018-08-19T08:56:02.616Z,10.19
2018-08-19T09:01:57.710Z,9.81
2018-08-19T09:07:52.605Z,9.09
2018-08-19T09:13:47.663Z,9.5
2018-08-19T09:19:42.685Z,9.99
2018-08-19T09:25:37.650Z,9.68
2018-08-19T09:31:32.639Z,9.91
2018-08-19T09:37:27.652Z,10.32
2018-08-19T09:43:22.676Z,10.46
2018-08-19T09:49:17.657Z,10.78
2018-08-19T09:55:12.684Z,10.92
2018-08-19T10:01:07.708Z,10.05
2018-08-19T10:07:02.683Z,9.62
2018-08-19T10:12:57.690Z,9.91
2018-08-19T10:18:52.701Z,9.65
2018-08-19T10:24:47.694Z,8.85
2018-08-19T10:30:42.684Z,8.95
2018-08-19T10:36:37.771Z,8.31
2018-08-19T10:42:32.712Z,8.84
2018-08-19T10:48:27.703Z,8.16
2018-08-19T10:54:22.699Z,8.16
2018-08-19T11:00:17.699Z,7.6
2018-08-19T11:06:12.767Z,7.43
2018-08-19T11:12:07.791Z,7.02
2018-08-19T11:18:02.717Z,6.58
2018-08-19T11:23:57.719Z,6.38
2018-08-19T11:29:52.779Z,6.7
2018-08-19T11:35:47.809Z,5.88
2018-08-19T11:41:42.765Z,5.03
2018-08-19T11:47:37.766Z,5.64
2018-08-19T11:53:32.801Z,5.88
2018-08-19T11:59:27.778Z,5.38
2018-08-19T12:05:22.824Z,5.05
2018-08-19T12:11:17.798Z,5.21
2018-08-19T12:17:13.344Z,5.3
2018-08-19T12:23:07.804Z,5.22
2018-08-19T12:29:02.837Z,5.61
2018-08-19T12:34:57.800Z,5.06
2018-08-19T12:40:52.865Z,5.18
2018-08-19T12:46:47.851Z,4.67
2018-08-19T12:52:42.829Z,4.92
2018-08-19T12:58:37.844Z,4.72
2018-08-19T13:04:32.831Z,5.08
2018-08-19T13:10:27.810Z,4.66
2018-08-19T13:16:22.876Z,5.07
2018-08-19T13:22:17.835Z,5.36
2018-08-19T13:28:12.837Z,4.7
2018-08-19T13:34:07.837Z,5.38
2018-08-19T13:40:02.861Z,4.93
2018-08-19T13:45:57.854Z,5.5
2018-08-19T13:51:52.906Z,5.35
2018-08-19T13:57:47.867Z,5.35
2018-08-19T14:03:42.895Z,5.57
2018-08-19T14:09:37.938Z,5.4
2018-08-19T14:15:32.956Z,5.59
2018-08-19T14:21:27.911Z,5.48
2018-08-19T14:27:22.951Z,5.48
2018-08-19T14:33:17.942Z,5.72
2018-08-19T14:39:12.941Z,5.57
2018-08-19T14:45:07.912Z,6.11
2018-08-19T14:51:02.934Z,6.42
2018-08-19T14:56:57.922Z,6.12
2018-08-19T15:02:53.004Z,6.47
2018-08-19T15:08:47.935Z,6.03
2018-08-19T15:14:42.942Z,6.03
2018-08-19T15:20:37.983Z,6.13
2018-08-19T15:26:32.949Z,6.09
2018-08-19T15:32:28.324Z,6.05
2018-08-19T15:38:22.963Z,5.82
2018-08-19T15:44:17.968Z,5.8
2018-08-19T15:50:13.026Z,6.06
2018-08-19T15:56:07.980Z,5.98
2018-08-19T16:02:02.998Z,6.04
2018-08-19T16:07:58.020Z,6.66
2018-08-19T16:13:52.971Z,6.73
2018-08-19T16:19:48.027Z,6.51
2018-08-19T16:25:43.043Z,6.77
2018-08-19T16:31:38.040Z,6.64
2018-08-19T16:37:33.046Z,6.81
2018-08-19T16:43:28.043Z,6.71
2018-08-19T16:49:23.041Z,7.18
2018-08-19T16:55:18.042Z,7.56
2018-08-19T17:01:13.069Z,6.92
2018-08-19T17:07:08.066Z,7.51
2018-08-19T17:13:03.076Z,7.39
2018-08-19T17:18:58.101Z,7.83
2018-08-19T17:24:53.083Z,8.37
2018-08-19T17:30:48.074Z,8.6
2018-08-19T17:36:43.075Z,8.75
2018-08-19T17:42:38.100Z,8.86
2018-08-19T17:48:33.138Z,8.97
2018-08-19T17:54:28.126Z,9.18
2018-08-19T18:00:23.102Z,8.29
2018-08-19T18:06:18.200Z,8.46
2018-08-19T18:12:13.097Z,9.24
2018-08-19T18:18:08.294Z,8.83
2018-08-19T18:24:03.100Z,9.14
2018-08-19T18:29:58.128Z,9.31
2018-08-19T18:35:53.122Z,9.27
2018-08-19T18:41:48.125Z,9.54
2018-08-19T18:47:43.118Z,10.47
2018-08-19T18:53:38.144Z,9.87
2018-08-19T18:59:33.200Z,9.71
2018-08-19T19:05:28.142Z,9.92
2018-08-19T19:11:23.190Z,10.51
2018-08-19T19:17:18.221Z,10.36
2018-08-19T19:23:13.186Z,9.59
2018-08-19T19:29:08.169Z,10.23
2018-08-19T19:35:03.176Z,10.36
2018-08-19T19:40:58.179Z,10.72
2018-08-19T19:46:53.188Z,11.06
2018-08-19T19:52:48.209Z,10.26
2018-08-19T19:58:43.223Z,12.56
2018-08-19T20:04:38.257Z,12.8
2018-08-19T20:10:33.198Z,12.93
2018-08-19T20:16:28.229Z,12.59
2018-08-19T20:22:23.218Z,12.19
2018-08-19T20:28:18.247Z,12.76
2018-08-19T20:34:13.261Z,11.8
2018-08-19T20:40:08.273Z,11.72
2018-08-19T20:46:03.280Z,11.34
2018-08-19T20:51:58.249Z,11.08
2018-08-19T20:57:53.272Z,11.98
2018-08-19T21:03:48.241Z,12.07
2018-08-19T21:09:43.270Z,10.74
2018-08-19T21:15:38.284Z,11.79
2018-08-19T21:21:33.283Z,11.23
2018-08-19T21:27:28.287Z,12.13
2018-08-19T21:33:23.281Z,12.56
2018-08-19T21:39:18.310Z,12
2018-08-19T21:45:13.289Z,12.45
2018-08-19T21:51:08.301Z,12.46
2018-08-19T21:57:03.281Z,12.02
2018-08-19T22:02:58.311Z,12.76
2018-08-19T22:08:53.320Z,12.27
2018-08-19T22:14:48.307Z,12.57
2018-08-19T22:20:43.355Z,13.18
2018-08-19T22:26:38.301Z,12.54
2018-08-19T22:32:33.332Z,13.42
2018-08-19T22:38:28.323Z,13.23
2018-08-19T22:44:23.338Z,12.64
2018-08-19T22:50:18.347Z,12.96
2018-08-19T22:56:13.352Z,13.38
2018-08-19T23:02:08.387Z,12.94
2018-08-19T23:08:03.370Z,13.59
2018-08-19T23:13:58.429Z,13.68
2018-08-19T23:19:53.363Z,13.93
2018-08-19T23:25:48.365Z,13.37
2018-08-19T23:31:43.399Z,13.94
2018-08-19T23:37:38.403Z,13.85
2018-08-19T23:43:33.380Z,13.36
2018-08-19T23:49:28.403Z,13.47
2018-08-19T23:55:23.386Z,14.17
